createdAt,value
2022-08-10T00:03:07.709Z,41.33
2022-08-10T00:08:12.660Z,41.80
2022-08-10T00:13:28.099Z,41.63
2022-08-10T00:18:35.574Z,40.96
2022-08-10T00:23:42.178Z,42.09
2022-08-10T00:28:45.668Z,42.23
2022-08-10T00:33:49.147Z,42.89
2022-08-10T00:38:54.040Z,42.44
2022-08-10T00:43:57.492Z,42.67
2022-08-10T00:49:01.055Z,41.89
2022-08-10T00:54:06.590Z,44.21
2022-08-10T00:59:13.845Z,43.91
2022-08-10T01:04:39.568Z,44.32
2022-08-10T01:09:55.689Z,44.50
2022-08-10T01:15:05.895Z,44.18
2022-08-10T01:20:30.218Z,44.60
2022-08-10T01:26:10.494Z,45.89
2022-08-10T01:31:15.902Z,45.98
2022-08-10T01:36:20.812Z,44.64
2022-08-10T01:41:46.639Z,46.30
2022-08-10T01:46:56.770Z,47.05
2022-08-10T01:52:01.732Z,46.18
2022-08-10T01:57:05.996Z,47.93
2022-08-10T02:02:13.302Z,47.76
2022-08-10T02:07:19.933Z,49.31
2022-08-10T02:12:25.623Z,47.74
2022-08-10T02:17:58.375Z,47.46
2022-08-10T02:23:02.330Z,48.05
2022-08-10T02:28:07.500Z,48.41
2022-08-10T02:33:12.723Z,47.96
2022-08-10T02:38:58.251Z,48.27
2022-08-10T02:45:21.828Z,49.32
2022-08-10T02:49:21.439Z,48.40
2022-08-10T02:54:26.293Z,47.94
2022-08-10T02:59:39.597Z,49.50
2022-08-10T03:04:56.188Z,49.50
2022-08-10T03:10:02.910Z,48.32
2022-08-10T03:15:15.327Z,48.72
2022-08-10T03:20:38.401Z,49.44
2022-08-10T03:25:53.180Z,48.73
2022-08-10T03:30:58.543Z,49.19
2022-08-10T03:36:44.088Z,48.64
2022-08-10T03:41:35.606Z,49.15
2022-08-10T03:46:42.538Z,50.71
2022-08-10T03:51:49.166Z,50.38
2022-08-10T03:56:52.843Z,49.27
2022-08-10T04:02:46.397Z,50.38
2022-08-10T04:07:21.873Z,51.20
2022-08-10T04:12:25.570Z,48.82
2022-08-10T04:18:03.039Z,49.52
2022-08-10T04:22:54.841Z,48.51
2022-08-10T04:27:58.773Z,49.29
2022-08-10T04:33:03.909Z,48.49
2022-08-10T04:38:09.789Z,48.94
2022-08-10T04:43:13.775Z,50.90
2022-08-10T04:48:41.675Z,49.93
2022-08-10T04:54:03.296Z,49.28
2022-08-10T04:59:07.360Z,48.57
2022-08-10T05:04:37.240Z,48.60
2022-08-10T05:10:01.193Z,48.84
2022-08-10T05:14:59.742Z,49.58
2022-08-10T05:20:06.962Z,49.13
2022-08-10T05:25:13.845Z,48.49
2022-08-10T05:30:21.748Z,47.77
2022-08-10T05:35:25.708Z,48.15
2022-08-10T05:40:30.631Z,47.32
2022-08-10T05:45:34.206Z,46.75
2022-08-10T05:50:57.791Z,46.39
2022-08-10T05:56:03.879Z,46.28
2022-08-10T06:01:09.192Z,45.60
2022-08-10T06:06:13.777Z,44.94
2022-08-10T06:12:26.487Z,44.52
2022-08-10T06:16:44.267Z,44.41
2022-08-10T06:22:00.674Z,44.10
2022-08-10T06:27:06.476Z,43.86
2022-08-10T06:32:11.624Z,42.67
2022-08-10T06:37:18.792Z,43.24
2022-08-10T06:42:29.425Z,42.20
2022-08-10T06:47:38.571Z,41.24
2022-08-10T06:52:43.855Z,41.13
2022-08-10T06:57:59.798Z,39.95
2022-08-10T07:03:08.104Z,40.20
2022-08-10T07:08:12.100Z,39.47
2022-08-10T07:14:17.034Z,39.29
2022-08-10T07:18:44.306Z,38.39
2022-08-10T07:23:58.433Z,38.31
2022-08-10T07:29:06.025Z,37.83
2022-08-10T07:34:10.267Z,37.80
2022-08-10T07:39:13.919Z,37.16
2022-08-10T07:44:19.669Z,36.82
2022-08-10T07:49:26.105Z,36.36
2022-08-10T07:54:30.637Z,36.24
2022-08-10T07:59:38.793Z,35.70
2022-08-10T08:04:43.296Z,35.29
2022-08-10T08:09:57.835Z,35.11
2022-08-10T08:16:14.371Z,35.01
2022-08-10T08:20:31.414Z,34.80
2022-08-10T08:25:35.082Z,33.89
2022-08-10T08:30:43.515Z,33.66
2022-08-10T08:35:50.871Z,32.72
2022-08-10T08:41:00.479Z,32.48
2022-08-10T08:46:20.237Z,32.06
2022-08-10T08:52:17.149Z,32.06
2022-08-10T08:57:01.279Z,31.49
2022-08-10T09:02:14.938Z,30.38
2022-08-10T09:07:59.280Z,30.55
2022-08-10T09:13:02.742Z,29.54
2022-08-10T09:18:12.524Z,29.40
2022-08-10T09:24:02.073Z,28.88
2022-08-10T09:28:52.469Z,28.09
2022-08-10T09:36:20.389Z,27.10
2022-08-10T09:41:03.067Z,27.11
2022-08-10T09:45:54.580Z,26.78
2022-08-10T09:56:33.895Z,25.50
2022-08-10T10:02:00.507Z,25.08
2022-08-10T10:07:08.132Z,25.13
2022-08-10T10:12:17.313Z,25.35
2022-08-10T10:17:27.527Z,25.36
2022-08-10T10:22:43.659Z,23.57
2022-08-10T10:27:52.560Z,23.32
2022-08-10T10:33:00.312Z,23.17
2022-08-10T10:53:38.019Z,24.58
2022-08-10T10:58:47.659Z,23.22
2022-08-10T11:04:02.971Z,22.19
2022-08-10T11:10:06.089Z,21.83
2022-08-10T11:14:49.778Z,22.40
2022-08-10T11:20:01.820Z,20.50
2022-08-10T11:25:12.904Z,21.80
2022-08-10T11:30:21.161Z,20.65
2022-08-10T11:36:03.244Z,21.33
2022-08-10T11:42:08.929Z,20.71
2022-08-10T11:46:41.410Z,19.85
2022-08-10T11:51:47.072Z,19.47
2022-08-10T11:56:58.484Z,18.83
2022-08-10T12:02:06.721Z,19.57
2022-08-10T12:10:07.419Z,19.00
2022-08-10T12:12:38.331Z,19.88
2022-08-10T12:17:47.011Z,17.61
2022-08-10T12:22:56.642Z,17.71
2022-08-10T12:28:08.780Z,18.82
2022-08-10T12:33:21.671Z,18.31
2022-08-10T12:38:32.464Z,18.86
2022-08-10T12:44:04.941Z,19.41
2022-08-10T12:49:10.659Z,17.95
2022-08-10T12:54:17.614Z,18.00
2022-08-10T12:59:43.260Z,18.07
2022-08-10T13:04:50.586Z,17.25
2022-08-10T13:09:56.549Z,18.10
2022-08-10T13:15:45.393Z,17.17
2022-08-10T13:20:35.765Z,17.40
2022-08-10T13:25:41.924Z,17.24
2022-08-10T13:30:50.600Z,16.68
2022-08-10T13:35:58.114Z,17.76
2022-08-10T13:41:04.668Z,15.87
2022-08-10T13:46:22.651Z,17.59
2022-08-10T13:51:56.705Z,16.65
2022-08-10T13:56:52.303Z,16.53
2022-08-10T14:02:00.532Z,16.09
2022-08-10T14:07:04.623Z,17.19
2022-08-10T14:12:10.116Z,18.01
2022-08-10T14:17:15.300Z,16.28
2022-08-10T14:22:34.154Z,16.11
2022-08-10T14:28:03.711Z,17.62
2022-08-10T14:33:07.445Z,17.05
2022-08-10T14:38:13.614Z,16.79
2022-08-10T14:43:28.269Z,16.24
2022-08-10T14:48:36.150Z,16.56
2022-08-10T14:53:42.536Z,17.08
2022-08-10T14:58:59.346Z,16.34
2022-08-10T15:04:13.349Z,16.92
2022-08-10T15:09:20.212Z,17.08
2022-08-10T15:14:43.257Z,17.51
2022-08-10T15:20:03.329Z,16.58
2022-08-10T15:25:25.554Z,16.88
2022-08-10T15:30:31.839Z,17.32
2022-08-10T15:35:55.279Z,17.51
2022-08-10T15:40:59.498Z,17.79
2022-08-10T15:46:16.050Z,18.26
2022-08-10T15:51:28.163Z,18.12
2022-08-10T15:56:35.426Z,18.33
2022-08-10T16:02:13.898Z,18.63
2022-08-10T16:07:12.829Z,18.07
2022-08-10T16:12:29.396Z,18.98
2022-08-10T16:17:54.603Z,17.83
2022-08-10T16:23:02.477Z,18.51
2022-08-10T16:28:08.658Z,18.96
2022-08-10T16:33:14.460Z,19.00
2022-08-10T16:38:20.710Z,18.87
2022-08-10T16:43:25.860Z,19.73
2022-08-10T16:48:50.029Z,19.68
2022-08-10T16:53:56.306Z,19.80
2022-08-10T16:58:59.971Z,19.12
2022-08-10T17:04:10.235Z,19.81
2022-08-10T17:09:19.807Z,20.10
2022-08-10T17:14:25.041Z,19.85
2022-08-10T17:19:31.359Z,19.51
2022-08-10T17:24:39.042Z,20.14
2022-08-10T17:29:58.949Z,20.24
2022-08-10T17:35:10.651Z,20.64
2022-08-10T17:40:17.345Z,20.51
2022-08-10T17:45:47.595Z,21.12
2022-08-10T17:50:50.470Z,21.19
2022-08-10T17:55:57.936Z,21.93
2022-08-10T18:01:40.838Z,21.93
2022-08-10T18:06:26.981Z,21.91
2022-08-10T18:11:33.887Z,22.77
2022-08-10T18:16:41.828Z,22.09
2022-08-10T18:21:48.520Z,22.84
2022-08-10T18:26:55.230Z,23.05
2022-08-10T18:32:01.080Z,23.47
2022-08-10T18:37:07.836Z,23.26
2022-08-10T18:42:14.616Z,24.24
2022-08-10T18:47:21.387Z,24.29
2022-08-10T18:52:28.095Z,24.84
2022-08-10T18:57:43.260Z,25.41
2022-08-10T19:03:12.246Z,26.02
2022-08-10T19:08:33.686Z,26.30
2022-08-10T19:14:09.677Z,26.96
2022-08-10T19:19:34.698Z,27.28
2022-08-10T19:24:46.897Z,28.34
2022-08-10T19:30:09.480Z,28.59
2022-08-10T19:35:22.759Z,29.37
2022-08-10T19:40:46.583Z,30.15
2022-08-10T19:46:02.501Z,30.16
2022-08-10T19:51:10.541Z,30.08
2022-08-10T19:56:33.685Z,30.99
2022-08-10T20:01:55.038Z,30.91
2022-08-10T20:07:06.685Z,30.94
2022-08-10T20:12:15.228Z,31.08
2022-08-10T20:17:27.155Z,31.77
2022-08-10T20:22:36.896Z,31.41
2022-08-10T20:28:00.470Z,32.00
2022-08-10T20:33:11.080Z,31.46
2022-08-10T20:38:21.060Z,32.33
2022-08-10T20:43:31.140Z,32.17
2022-08-10T20:48:39.355Z,32.38
2022-08-10T20:53:46.080Z,32.52
2022-08-10T20:59:09.356Z,32.75
2022-08-10T21:04:19.846Z,32.78
2022-08-10T21:09:34.759Z,33.03
2022-08-10T21:14:44.955Z,32.99
2022-08-10T21:20:09.263Z,33.87
2022-08-10T21:25:18.720Z,33.66
2022-08-10T21:30:29.052Z,34.47
2022-08-10T21:35:38.343Z,33.81
2022-08-10T21:41:17.814Z,34.13
2022-08-10T21:46:33.167Z,34.90
2022-08-10T21:52:04.184Z,35.51
2022-08-10T21:57:43.008Z,34.65
2022-08-10T22:03:06.018Z,35.98
2022-08-10T22:08:29.345Z,35.32
2022-08-10T22:13:53.638Z,36.07
2022-08-10T22:19:17.027Z,36.74
2022-08-10T22:24:47.218Z,36.58
2022-08-10T22:30:12.579Z,36.16
2022-08-10T22:35:57.007Z,35.91
2022-08-10T22:41:26.477Z,35.84
2022-08-10T22:46:49.571Z,35.66
2022-08-10T22:51:55.469Z,36.17
2022-08-10T22:57:18.048Z,35.52
2022-08-10T23:02:29.633Z,36.12
2022-08-10T23:07:34.565Z,36.26
2022-08-10T23:12:42.776Z,36.88
2022-08-10T23:18:08.294Z,36.75
2022-08-10T23:23:23.559Z,36.25
2022-08-10T23:28:39.457Z,36.67
2022-08-10T23:33:59.645Z,37.10
2022-08-10T23:39:25.919Z,36.67
2022-08-10T23:44:36.632Z,37.32
2022-08-10T23:49:43.107Z,38.04
2022-08-10T23:54:49.463Z,37.84
2022-08-10T23:59:58.807Z,37.63
